Weather at Fort Macleod (Hospital) Heliport

Public forecast

Using degrees Celsius for public forecast. Weather courtesy of forecast.io.

Closest aviation weather report (METAR) to Fort Macleod (Hospital) Heliport

Closest report is Lethbridge County Airport, 23.7 nm (43.9 km) ESE.

2024/05/21 12:00 (retrieved 34 minutes ago)

CYQL 211200Z 23005KT 60SM FEW050 SCT090 BKN130 05/04 A2991 RMK SC1AC3AC2 SLP146

Closest aviation forecast (TAF) to Fort Macleod (Hospital) Heliport

Closest forecast is Lethbridge County Airport, 23.7 nm (43.9 km) ESE.

2024/05/21 12:42 (retrieved 0 seconds ago)

TAF CYQL 211140Z 2112/2124 22005KT P6SM FEW012 BKN050 TEMPO 2112/2115 SCT050 FM211500 27008KT P6SM FEW030 SCT120 FM211800 28012KT P6SM BKN100 FM212000 24012G22KT P6SM BKN100 TEMPO 2120/2124 VRB18G28KT P6SM -SHRA VCTS BKN080CB RMK FCST BASED ON AUTO OBS NXT FCST BY 211800Z